createdAt,value
2022-12-25T00:01:47.917Z,446.60
2022-12-25T00:06:41.393Z,286.55
2022-12-25T00:16:28.629Z,284.25
2022-12-25T00:21:23.175Z,277.48
2022-12-25T00:26:17.897Z,261.05
2022-12-25T00:31:13.528Z,217.10
2022-12-25T00:36:08.755Z,280.05
2022-12-25T00:41:08.498Z,240.95
2022-12-25T00:46:04.984Z,278.60
2022-12-25T00:51:21.592Z,242.77
2022-12-25T00:56:15.181Z,276.13
2022-12-25T01:01:09.628Z,268.33
2022-12-25T01:06:06.807Z,366.05
2022-12-25T01:11:21.419Z,240.27
2022-12-25T01:16:19.755Z,390.63
2022-12-25T01:21:16.848Z,272.33
2022-12-25T01:26:12.336Z,225.98
2022-12-25T01:31:09.677Z,251.88
2022-12-25T01:36:04.216Z,239.95
2022-12-25T01:40:58.492Z,315.05
2022-12-25T01:45:53.196Z,264.05
2022-12-25T01:50:48.597Z,218.38
2022-12-25T01:55:43.116Z,212.30
2022-12-25T02:00:37.087Z,250.23
2022-12-25T02:05:33.170Z,314.67
2022-12-25T02:10:27.477Z,336.17
2022-12-25T02:15:22.944Z,369.83
2022-12-25T02:20:24.618Z,447.63
2022-12-25T02:25:36.650Z,392.77
2022-12-25T02:30:36.661Z,298.25
2022-12-25T02:35:31.531Z,303.25
2022-12-25T02:40:32.588Z,282.60
2022-12-25T02:45:51.282Z,274.98
2022-12-25T02:51:02.953Z,348.33
2022-12-25T02:56:15.115Z,358.98
2022-12-25T03:01:30.994Z,333.40
2022-12-25T03:06:46.643Z,374.42
2022-12-25T03:11:40.409Z,339.08
2022-12-25T03:16:54.428Z,364.42
2022-12-25T03:22:06.136Z,328.70
2022-12-25T03:27:00.031Z,263.05
2022-12-25T03:37:13.388Z,325.38
2022-12-25T03:42:25.113Z,305.52
2022-12-25T03:47:37.783Z,310.90
2022-12-25T03:52:49.982Z,345.55
2022-12-25T03:58:01.276Z,319.52
2022-12-25T04:03:13.870Z,361.60
2022-12-25T04:08:26.156Z,288.33
2022-12-25T04:13:37.931Z,239.82
2022-12-25T04:18:49.906Z,336.70
2022-12-25T04:24:01.726Z,283.33
2022-12-25T04:29:18.415Z,300.73
2022-12-25T04:34:31.241Z,331.42
2022-12-25T04:39:25.074Z,312.35
2022-12-25T04:44:18.375Z,353.77
2022-12-25T04:49:11.613Z,451.85
2022-12-25T04:54:06.003Z,358.73
2022-12-25T04:58:59.513Z,308.23
2022-12-25T05:03:53.089Z,351.30
2022-12-25T05:08:46.997Z,376.05
2022-12-25T05:13:41.383Z,366.65
2022-12-25T05:18:35.869Z,281.45
2022-12-25T05:23:29.798Z,300.33
2022-12-25T05:28:23.567Z,358.67
2022-12-25T05:33:17.939Z,257.55
2022-12-25T05:38:11.596Z,289.98
2022-12-25T05:43:05.125Z,314.98
2022-12-25T05:47:59.088Z,279.15
2022-12-25T05:52:53.485Z,282.95
2022-12-25T05:57:47.172Z,236.98
2022-12-25T06:02:40.695Z,240.20
2022-12-25T06:07:34.968Z,287.27
2022-12-25T06:12:28.924Z,206.82
2022-12-25T06:17:23.881Z,195.02
2022-12-25T06:22:16.613Z,209.40
2022-12-25T06:27:10.572Z,199.73
2022-12-25T06:32:03.907Z,209.45
2022-12-25T06:36:57.669Z,205.80
2022-12-25T06:41:51.725Z,222.05
2022-12-25T06:46:45.633Z,225.30
2022-12-25T06:51:40.732Z,195.85
2022-12-25T06:56:35.432Z,158.30
2022-12-25T07:01:41.209Z,188.73
2022-12-25T07:06:36.023Z,184.18
2022-12-25T07:11:29.277Z,165.88
2022-12-25T07:16:23.816Z,144.05
2022-12-25T07:21:20.237Z,161.32
2022-12-25T07:26:14.928Z,200.48
2022-12-25T07:31:12.385Z,281.98
2022-12-25T07:36:06.652Z,233.10
2022-12-25T07:40:59.848Z,277.70
2022-12-25T07:46:00.320Z,395.70
2022-12-25T07:51:06.456Z,264.58
2022-12-25T07:56:05.737Z,280.77
2022-12-25T08:01:11.591Z,526.38
2022-12-25T08:06:07.733Z,537.15
2022-12-25T08:11:01.678Z,402.73
2022-12-25T08:16:00.062Z,565.17
2022-12-25T08:20:53.929Z,386.15
2022-12-25T08:25:47.797Z,313.02
2022-12-25T08:30:42.089Z,353.60
2022-12-25T08:35:36.401Z,299.48
2022-12-25T08:40:30.281Z,228.13
2022-12-25T08:45:25.614Z,476.13
2022-12-25T08:50:23.828Z,556.13
2022-12-25T08:55:16.626Z,288.35
2022-12-25T09:00:10.350Z,452.70
2022-12-25T09:05:05.030Z,155.45
2022-12-25T09:09:59.307Z,161.23
2022-12-25T09:19:46.815Z,147.07
2022-12-25T09:24:40.691Z,155.27
2022-12-25T09:29:34.847Z,129.15
2022-12-25T09:34:29.400Z,131.90
2022-12-25T09:39:24.076Z,139.23
2022-12-25T09:44:23.739Z,139.90
2022-12-25T09:49:58.153Z,129.43
2022-12-25T09:54:58.768Z,131.50
2022-12-25T09:59:53.678Z,134.27
2022-12-25T10:05:16.288Z,131.65
2022-12-25T10:10:19.017Z,142.63
2022-12-25T10:15:30.822Z,138.00
2022-12-25T10:20:42.196Z,135.32
2022-12-25T10:25:38.487Z,120.90
2022-12-25T10:30:33.089Z,115.22
2022-12-25T10:35:28.887Z,112.47
2022-12-25T10:40:22.002Z,115.63
2022-12-25T10:45:16.253Z,113.35
2022-12-25T10:50:29.405Z,120.68
2022-12-25T10:55:28.397Z,111.70
2022-12-25T11:00:25.912Z,116.57
2022-12-25T11:05:32.106Z,123.03
2022-12-25T11:10:37.216Z,121.38
2022-12-25T11:15:30.073Z,111.22
2022-12-25T11:20:24.234Z,100.70
2022-12-25T11:25:42.801Z,113.60
2022-12-25T11:30:37.310Z,96.13
2022-12-25T11:35:32.334Z,96.70
2022-12-25T11:40:29.996Z,101.00
2022-12-25T11:45:32.760Z,96.43
2022-12-25T11:50:36.200Z,92.50
2022-12-25T11:55:32.075Z,94.75
2022-12-25T12:00:25.758Z,93.68
2022-12-25T12:05:25.996Z,84.75
2022-12-25T12:10:24.928Z,78.38
2022-12-25T12:15:36.683Z,85.20
2022-12-25T12:20:35.578Z,82.55
2022-12-25T12:25:30.250Z,78.22
2022-12-25T12:30:41.870Z,71.63
2022-12-25T12:35:38.258Z,84.97
2022-12-25T12:40:38.246Z,80.78
2022-12-25T12:46:11.830Z,76.15
2022-12-25T12:51:29.801Z,76.47
2022-12-25T12:56:23.770Z,80.78
2022-12-25T13:02:07.539Z,76.45
2022-12-25T13:07:32.669Z,73.03
2022-12-25T13:12:26.395Z,75.80
2022-12-25T13:17:27.192Z,73.25
2022-12-25T13:22:24.950Z,70.35
2022-12-25T13:27:27.113Z,71.43
2022-12-25T13:32:25.161Z,76.85
2022-12-25T13:37:20.233Z,66.82
2022-12-25T13:42:24.947Z,70.80
2022-12-25T13:47:25.393Z,72.32
2022-12-25T13:52:22.759Z,74.93
2022-12-25T13:57:18.934Z,70.60
2022-12-25T14:02:20.934Z,67.75
2022-12-25T14:07:19.498Z,73.68
2022-12-25T14:12:19.152Z,70.25
2022-12-25T14:17:13.227Z,69.78
2022-12-25T14:22:12.498Z,67.93
2022-12-25T14:27:19.183Z,74.75
2022-12-25T14:32:18.879Z,68.43
2022-12-25T14:37:18.992Z,76.35
2022-12-25T14:42:27.118Z,75.75
2022-12-25T14:47:22.509Z,69.75
2022-12-25T14:52:22.545Z,71.60
2022-12-25T14:57:53.281Z,70.90
2022-12-25T15:02:47.909Z,65.10
2022-12-25T15:07:46.762Z,64.18
2022-12-25T15:12:41.264Z,60.80
2022-12-25T15:17:37.098Z,78.20
2022-12-25T15:22:54.038Z,76.95
2022-12-25T15:32:38.655Z,65.47
2022-12-25T15:37:32.830Z,66.97
2022-12-25T15:42:26.652Z,66.85
2022-12-25T15:47:20.775Z,70.55
2022-12-25T15:52:15.837Z,67.10
2022-12-25T15:57:19.027Z,72.97
2022-12-25T16:02:18.786Z,62.00
2022-12-25T16:07:17.859Z,71.40
2022-12-25T16:12:11.562Z,69.25
2022-12-25T16:17:05.964Z,71.45
2022-12-25T16:21:59.672Z,67.15
2022-12-25T16:26:53.245Z,70.63
2022-12-25T16:31:47.332Z,72.80
2022-12-25T16:36:41.387Z,68.85
2022-12-25T16:41:34.758Z,76.50
2022-12-25T16:46:29.225Z,79.28
2022-12-25T16:51:23.568Z,86.07
2022-12-25T16:56:28.735Z,83.72
2022-12-25T17:01:23.201Z,86.78
2022-12-25T17:06:27.781Z,100.60
2022-12-25T17:11:25.046Z,84.55
2022-12-25T17:16:29.346Z,89.22
2022-12-25T17:21:43.610Z,89.55
2022-12-25T17:26:37.579Z,83.47
2022-12-25T17:31:31.772Z,80.45
2022-12-25T17:36:25.976Z,88.68
2022-12-25T17:41:20.961Z,94.43
2022-12-25T17:46:18.260Z,83.97
2022-12-25T17:51:15.197Z,80.40
2022-12-25T17:56:11.306Z,89.13
2022-12-25T18:01:12.365Z,91.82
2022-12-25T18:06:08.013Z,93.30
2022-12-25T18:11:09.216Z,92.45
2022-12-25T18:16:09.311Z,86.28
2022-12-25T18:21:04.307Z,87.85
2022-12-25T18:26:01.646Z,86.72
2022-12-25T18:30:55.668Z,85.78
2022-12-25T18:35:49.742Z,85.63
2022-12-25T18:45:39.748Z,88.38
2022-12-25T18:50:35.047Z,89.28
2022-12-25T18:55:28.369Z,82.88
2022-12-25T19:00:22.849Z,87.68
2022-12-25T19:05:18.038Z,84.22
2022-12-25T19:10:12.246Z,84.57
2022-12-25T19:15:08.143Z,87.25
2022-12-25T19:20:03.010Z,95.18
2022-12-25T19:24:57.237Z,87.25
2022-12-25T19:29:51.586Z,84.70
2022-12-25T19:34:46.099Z,81.90
2022-12-25T19:39:46.119Z,83.53
2022-12-25T19:44:41.354Z,79.00
2022-12-25T19:49:35.852Z,83.30
2022-12-25T19:54:30.089Z,82.10
2022-12-25T19:59:24.236Z,75.40
2022-12-25T20:04:19.052Z,78.63
2022-12-25T20:09:18.781Z,78.22
2022-12-25T20:14:16.942Z,79.63
2022-12-25T20:19:12.583Z,78.07
2022-12-25T20:24:10.911Z,75.13
2022-12-25T20:29:05.446Z,79.70
2022-12-25T20:34:00.333Z,73.32
2022-12-25T20:38:54.191Z,80.82
2022-12-25T20:43:48.521Z,96.63
2022-12-25T20:48:42.038Z,99.53
2022-12-25T20:53:36.124Z,93.63
2022-12-25T20:58:30.403Z,141.80
2022-12-25T21:03:23.900Z,108.00
2022-12-25T21:08:25.335Z,85.20
2022-12-25T21:13:21.405Z,83.25
2022-12-25T21:18:15.882Z,96.88
2022-12-25T21:23:09.607Z,90.20
2022-12-25T21:28:03.143Z,95.22
2022-12-25T21:33:17.435Z,94.10
2022-12-25T21:38:14.853Z,86.10
2022-12-25T21:43:09.077Z,90.68
2022-12-25T21:48:03.685Z,81.95
2022-12-25T21:52:58.602Z,82.75
2022-12-25T21:57:52.721Z,91.00
2022-12-25T22:02:49.959Z,88.97
2022-12-25T22:07:43.933Z,85.15
2022-12-25T22:12:56.170Z,84.07
2022-12-25T22:18:08.083Z,93.90
2022-12-25T22:23:01.924Z,90.43
2022-12-25T22:27:56.001Z,85.55
2022-12-25T22:32:50.955Z,83.10
2022-12-25T22:37:44.640Z,90.25
2022-12-25T22:47:31.812Z,80.47
2022-12-25T22:52:26.080Z,88.82
2022-12-25T22:57:19.760Z,93.65
2022-12-25T23:02:13.888Z,88.00
2022-12-25T23:07:08.127Z,88.60
2022-12-25T23:12:02.926Z,85.85
2022-12-25T23:16:56.657Z,88.15
2022-12-25T23:27:02.505Z,85.85
2022-12-25T23:31:55.923Z,83.90
2022-12-25T23:36:49.177Z,91.22
2022-12-25T23:41:44.137Z,83.85
2022-12-25T23:46:37.239Z,86.40
2022-12-25T23:51:31.579Z,85.97
2022-12-25T23:56:24.782Z,81.10
